This is the latest recevied weather packets stored in our database for station/object ALANSN-2. If no packets are shown the sender has not sent any weather packets the latest 10 day(s).
| Time | Temp. | Humidity | Pressure | Rain* | Wind** | Luminosity | Snow |
|---|---|---|---|---|---|---|---|
| 1777964702 | 7.78° C | 70% | 1007.5 hPa | 0 mm | - | 0 W/m² | - |
| 1777964401 | 7.78° C | 72% | 1007.3 hPa | 0 mm | - | 0 W/m² | - |
| 1777964102 | 7.78° C | 71% | 1007.5 hPa | 0 mm | - | 0 W/m² | - |
| 1777963802 | 7.78° C | 70% | 1007.5 hPa | 0 mm | - | 0 W/m² | - |
| 1777963202 | 7.78° C | 72% | 1007.4 hPa | 0 mm | - | 0 W/m² | - |
| 1777962902 | 7.78° C | 73% | 1007.5 hPa | 0 mm | - | 0 W/m² | - |
| 1777962302 | 7.78° C | 73% | 1007.3 hPa | 0 mm | - | 0 W/m² | - |
| 1777961402 | 7.78° C | 71% | 1007.5 hPa | 0 mm | - | 0 W/m² | - |
| 1777961101 | 7.78° C | 72% | 1007.5 hPa | 0 mm | - | 0 W/m² | - |
| 1777960802 | 8.33° C | 71% | 1007.5 hPa | 0 mm | - | 0 W/m² | - |
| 1777959302 | 7.22° C | 84% | 1007 hPa | 0 mm | - | 0 W/m² | - |
| 1777958702 | 7.22° C | 85% | 1006.6 hPa | 0 mm | - | 0 W/m² | - |
| 1777958402 | 7.22° C | 87% | 1006.7 hPa | 0 mm | - | 0 W/m² | - |
| 1777957802 | 7.22° C | 91% | 1006.7 hPa | 0 mm | - | 0 W/m² | - |
| 1777957501 | 7.22° C | 92% | 1006.6 hPa | 0 mm | - | 0 W/m² | - |
| 1777957202 | 7.22° C | 93% | 1006.7 hPa | 0 mm | - | 0 W/m² | - |
| 1777956902 | 7.22° C | 96% | 1006.3 hPa | 0 mm | - | 0 W/m² | - |
| 1777956601 | 7.22° C | 97% | 1006.1 hPa | 0 mm | - | 0 W/m² | - |
| 1777956302 | 7.22° C | 96% | 1006.3 hPa | 0 mm | - | 0 W/m² | - |
| 1777955402 | 7.78° C | 95% | 1006 hPa | 0 mm | - | 0 W/m² | - |
| 1777953902 | 7.22° C | 98% | 1005.5 hPa | 0 mm | - | 0 W/m² | - |
| 1777941902 | 9.44° C | 97% | 1002.3 hPa | 0 mm | - | 0 W/m² | - |
| 1777941302 | 10° C | 98% | 1002.7 hPa | 0 mm | - | 2 W/m² | - |
| 1777937102 | 12.22° C | 85% | 1001.4 hPa | 1.78 mm | - | 8 W/m² | - |
| 1777934702 | 20° C | 53% | 999.2 hPa | 0 mm | - | 21 W/m² | - |
* Rain latest hour (hover to see other rain measurements)
** Current wind speed in m/s (hover to see current wind gust speed)